sensor_id;sensor_type;location;lat;lon;timestamp;P1;durP1;ratioP1;P2;durP2;ratioP2
44766;SDS011;30487;48.716;9.272;2023-10-31T00:00:23;2.65;;;0.50;;
44766;SDS011;30487;48.716;9.272;2023-10-31T00:02:48;2.25;;;0.40;;
44766;SDS011;30487;48.716;9.272;2023-10-31T00:05:14;1.45;;;0.35;;
44766;SDS011;30487;48.716;9.272;2023-10-31T00:07:40;1.08;;;0.50;;
44766;SDS011;30487;48.716;9.272;2023-10-31T00:10:05;3.33;;;0.60;;
44766;SDS011;30487;48.716;9.272;2023-10-31T00:12:31;2.00;;;0.30;;
44766;SDS011;30487;48.716;9.272;2023-10-31T00:14:57;0.85;;;0.40;;
44766;SDS011;30487;48.716;9.272;2023-10-31T00:17:23;0.90;;;0.40;;
44766;SDS011;30487;48.716;9.272;2023-10-31T00:19:48;0.85;;;0.40;;
44766;SDS011;30487;48.716;9.272;2023-10-31T00:22:14;0.73;;;0.30;;
44766;SDS011;30487;48.716;9.272;2023-10-31T00:24:39;0.60;;;0.40;;
44766;SDS011;30487;48.716;9.272;2023-10-31T00:27:05;0.47;;;0.30;;
44766;SDS011;30487;48.716;9.272;2023-10-31T00:29:30;0.82;;;0.40;;
44766;SDS011;30487;48.716;9.272;2023-10-31T00:31:56;0.40;;;0.30;;
44766;SDS011;30487;48.716;9.272;2023-10-31T00:34:21;2.00;;;0.28;;
44766;SDS011;30487;48.716;9.272;2023-10-31T00:36:47;0.68;;;0.30;;
44766;SDS011;30487;48.716;9.272;2023-10-31T00:39:13;0.68;;;0.40;;
44766;SDS011;30487;48.716;9.272;2023-10-31T00:41:39;0.47;;;0.30;;
44766;SDS011;30487;48.716;9.272;2023-10-31T00:44:09;1.10;;;0.35;;
44766;SDS011;30487;48.716;9.272;2023-10-31T00:46:35;0.70;;;0.35;;
44766;SDS011;30487;48.716;9.272;2023-10-31T00:49:00;0.40;;;0.35;;
44766;SDS011;30487;48.716;9.272;2023-10-31T00:51:26;0.40;;;0.30;;
44766;SDS011;30487;48.716;9.272;2023-10-31T00:53:51;0.40;;;0.30;;
44766;SDS011;30487;48.716;9.272;2023-10-31T00:56:17;0.75;;;0.40;;
44766;SDS011;30487;48.716;9.272;2023-10-31T00:58:42;1.05;;;0.30;;
44766;SDS011;30487;48.716;9.272;2023-10-31T01:01:08;0.40;;;0.20;;
44766;SDS011;30487;48.716;9.272;2023-10-31T01:03:33;1.58;;;0.30;;
44766;SDS011;30487;48.716;9.272;2023-10-31T01:05:59;0.70;;;0.25;;
44766;SDS011;30487;48.716;9.272;2023-10-31T01:08:24;1.83;;;0.30;;
44766;SDS011;30487;48.716;9.272;2023-10-31T01:10:50;1.95;;;0.32;;
44766;SDS011;30487;48.716;9.272;2023-10-31T01:13:16;2.47;;;0.45;;
44766;SDS011;30487;48.716;9.272;2023-10-31T01:15:41;1.55;;;0.40;;
44766;SDS011;30487;48.716;9.272;2023-10-31T01:18:07;0.68;;;0.30;;
44766;SDS011;30487;48.716;9.272;2023-10-31T01:20:33;0.20;;;0.20;;
44766;SDS011;30487;48.716;9.272;2023-10-31T01:22:58;0.30;;;0.30;;
44766;SDS011;30487;48.716;9.272;2023-10-31T01:25:24;0.50;;;0.30;;
44766;SDS011;30487;48.716;9.272;2023-10-31T01:27:50;0.70;;;0.30;;
44766;SDS011;30487;48.716;9.272;2023-10-31T01:30:15;0.85;;;0.35;;
44766;SDS011;30487;48.716;9.272;2023-10-31T01:32:41;1.52;;;0.47;;
44766;SDS011;30487;48.716;9.272;2023-10-31T01:35:06;0.50;;;0.30;;
44766;SDS011;30487;48.716;9.272;2023-10-31T01:37:32;1.85;;;0.40;;
44766;SDS011;30487;48.716;9.272;2023-10-31T01:39:58;0.20;;;0.20;;
44766;SDS011;30487;48.716;9.272;2023-10-31T01:42:23;1.08;;;0.30;;
44766;SDS011;30487;48.716;9.272;2023-10-31T01:44:49;0.60;;;0.30;;
44766;SDS011;30487;48.716;9.272;2023-10-31T01:47:14;0.60;;;0.40;;
44766;SDS011;30487;48.716;9.272;2023-10-31T01:49:40;0.85;;;0.30;;
44766;SDS011;30487;48.716;9.272;2023-10-31T01:52:06;0.22;;;0.20;;
44766;SDS011;30487;48.716;9.272;2023-10-31T01:54:32;2.10;;;0.30;;
44766;SDS011;30487;48.716;9.272;2023-10-31T01:56:59;1.05;;;0.30;;
44766;SDS011;30487;48.716;9.272;2023-10-31T01:59:26;0.50;;;0.30;;
44766;SDS011;30487;48.716;9.272;2023-10-31T02:01:52;0.40;;;0.30;;
44766;SDS011;30487;48.716;9.272;2023-10-31T02:04:19;1.08;;;0.32;;
44766;SDS011;30487;48.716;9.272;2023-10-31T02:06:45;0.60;;;0.38;;
44766;SDS011;30487;48.716;9.272;2023-10-31T02:09:10;0.45;;;0.30;;
44766;SDS011;30487;48.716;9.272;2023-10-31T02:11:36;1.65;;;0.30;;
44766;SDS011;30487;48.716;9.272;2023-10-31T02:14:02;2.78;;;0.30;;
44766;SDS011;30487;48.716;9.272;2023-10-31T02:16:28;0.85;;;0.30;;
44766;SDS011;30487;48.716;9.272;2023-10-31T02:18:53;0.60;;;0.30;;
44766;SDS011;30487;48.716;9.272;2023-10-31T02:21:19;1.15;;;0.30;;
44766;SDS011;30487;48.716;9.272;2023-10-31T02:23:55;1.08;;;0.30;;
44766;SDS011;30487;48.716;9.272;2023-10-31T02:26:28;0.38;;;0.30;;
44766;SDS011;30487;48.716;9.272;2023-10-31T02:28:55;0.40;;;0.25;;
44766;SDS011;30487;48.716;9.272;2023-10-31T02:31:20;1.20;;;0.30;;
44766;SDS011;30487;48.716;9.272;2023-10-31T02:33:46;0.60;;;0.30;;
44766;SDS011;30487;48.716;9.272;2023-10-31T02:36:12;1.02;;;0.35;;
44766;SDS011;30487;48.716;9.272;2023-10-31T02:38:37;2.28;;;0.47;;
44766;SDS011;30487;48.716;9.272;2023-10-31T02:41:04;1.02;;;0.35;;
44766;SDS011;30487;48.716;9.272;2023-10-31T02:43:29;0.95;;;0.32;;
44766;SDS011;30487;48.716;9.272;2023-10-31T02:45:55;0.43;;;0.20;;
44766;SDS011;30487;48.716;9.272;2023-10-31T02:48:20;2.63;;;0.30;;
44766;SDS011;30487;48.716;9.272;2023-10-31T02:50:46;0.98;;;0.30;;
44766;SDS011;30487;48.716;9.272;2023-10-31T02:53:12;1.25;;;0.40;;
44766;SDS011;30487;48.716;9.272;2023-10-31T02:55:37;0.63;;;0.35;;
44766;SDS011;30487;48.716;9.272;2023-10-31T02:58:03;2.55;;;0.43;;
44766;SDS011;30487;48.716;9.272;2023-10-31T03:00:28;2.25;;;0.50;;
44766;SDS011;30487;48.716;9.272;2023-10-31T03:02:54;1.40;;;0.30;;
44766;SDS011;30487;48.716;9.272;2023-10-31T03:05:19;0.77;;;0.40;;
44766;SDS011;30487;48.716;9.272;2023-10-31T03:07:45;1.35;;;0.40;;
44766;SDS011;30487;48.716;9.272;2023-10-31T03:10:11;2.05;;;0.47;;
44766;SDS011;30487;48.716;9.272;2023-10-31T03:12:36;3.08;;;0.50;;
44766;SDS011;30487;48.716;9.272;2023-10-31T03:15:02;1.40;;;0.43;;
44766;SDS011;30487;48.716;9.272;2023-10-31T03:17:31;1.98;;;0.52;;
44766;SDS011;30487;48.716;9.272;2023-10-31T03:19:56;0.82;;;0.30;;
44766;SDS011;30487;48.716;9.272;2023-10-31T03:22:22;1.85;;;0.60;;
44766;SDS011;30487;48.716;9.272;2023-10-31T03:24:47;0.90;;;0.40;;
44766;SDS011;30487;48.716;9.272;2023-10-31T03:27:13;4.25;;;0.50;;
44766;SDS011;30487;48.716;9.272;2023-10-31T03:29:39;0.80;;;0.40;;
44766;SDS011;30487;48.716;9.272;2023-10-31T03:32:04;0.98;;;0.40;;
44766;SDS011;30487;48.716;9.272;2023-10-31T03:34:30;1.15;;;0.47;;
44766;SDS011;30487;48.716;9.272;2023-10-31T03:36:56;0.70;;;0.35;;
44766;SDS011;30487;48.716;9.272;2023-10-31T03:39:21;1.33;;;0.40;;
44766;SDS011;30487;48.716;9.272;2023-10-31T03:41:47;2.13;;;0.30;;
44766;SDS011;30487;48.716;9.272;2023-10-31T03:44:12;5.03;;;0.40;;
44766;SDS011;30487;48.716;9.272;2023-10-31T03:46:38;6.55;;;0.43;;
44766;SDS011;30487;48.716;9.272;2023-10-31T03:49:04;1.25;;;0.30;;
44766;SDS011;30487;48.716;9.272;2023-10-31T03:51:32;1.05;;;0.40;;
44766;SDS011;30487;48.716;9.272;2023-10-31T03:53:59;1.90;;;0.40;;
44766;SDS011;30487;48.716;9.272;2023-10-31T03:56:24;0.50;;;0.40;;
44766;SDS011;30487;48.716;9.272;2023-10-31T03:58:50;1.17;;;0.40;;
44766;SDS011;30487;48.716;9.272;2023-10-31T04:01:15;3.83;;;0.40;;
44766;SDS011;30487;48.716;9.272;2023-10-31T04:03:41;6.68;;;0.40;;
44766;SDS011;30487;48.716;9.272;2023-10-31T04:06:07;1.13;;;0.40;;
44766;SDS011;30487;48.716;9.272;2023-10-31T04:08:32;1.02;;;0.40;;
44766;SDS011;30487;48.716;9.272;2023-10-31T04:10:58;1.42;;;0.30;;
44766;SDS011;30487;48.716;9.272;2023-10-31T04:13:23;0.98;;;0.30;;
44766;SDS011;30487;48.716;9.272;2023-10-31T04:15:49;0.52;;;0.30;;
44766;SDS011;30487;48.716;9.272;2023-10-31T04:18:14;1.95;;;0.57;;
44766;SDS011;30487;48.716;9.272;2023-10-31T04:20:41;0.55;;;0.40;;
44766;SDS011;30487;48.716;9.272;2023-10-31T04:23:07;0.88;;;0.22;;
44766;SDS011;30487;48.716;9.272;2023-10-31T04:25:33;2.28;;;0.60;;
44766;SDS011;30487;48.716;9.272;2023-10-31T04:27:58;0.93;;;0.45;;
44766;SDS011;30487;48.716;9.272;2023-10-31T04:30:25;1.23;;;0.30;;
44766;SDS011;30487;48.716;9.272;2023-10-31T04:32:51;1.10;;;0.40;;
44766;SDS011;30487;48.716;9.272;2023-10-31T04:35:16;1.25;;;0.40;;
44766;SDS011;30487;48.716;9.272;2023-10-31T04:37:42;1.95;;;0.63;;
44766;SDS011;30487;48.716;9.272;2023-10-31T04:40:08;1.10;;;0.40;;
44766;SDS011;30487;48.716;9.272;2023-10-31T04:42:34;2.03;;;0.55;;
44766;SDS011;30487;48.716;9.272;2023-10-31T04:45:00;1.30;;;0.30;;
44766;SDS011;30487;48.716;9.272;2023-10-31T04:47:25;0.88;;;0.40;;
44766;SDS011;30487;48.716;9.272;2023-10-31T04:49:51;2.28;;;0.57;;
44766;SDS011;30487;48.716;9.272;2023-10-31T04:52:17;1.55;;;0.30;;
44766;SDS011;30487;48.716;9.272;2023-10-31T04:54:42;1.77;;;0.40;;
44766;SDS011;30487;48.716;9.272;2023-10-31T04:57:08;1.33;;;0.38;;
44766;SDS011;30487;48.716;9.272;2023-10-31T04:59:34;1.75;;;0.32;;
44766;SDS011;30487;48.716;9.272;2023-10-31T05:01:59;2.53;;;0.40;;
44766;SDS011;30487;48.716;9.272;2023-10-31T05:04:25;1.52;;;0.50;;
44766;SDS011;30487;48.716;9.272;2023-10-31T05:06:51;0.60;;;0.28;;
44766;SDS011;30487;48.716;9.272;2023-10-31T05:09:16;0.55;;;0.30;;
44766;SDS011;30487;48.716;9.272;2023-10-31T05:11:43;1.58;;;0.40;;
44766;SDS011;30487;48.716;9.272;2023-10-31T05:14:08;1.25;;;0.32;;
44766;SDS011;30487;48.716;9.272;2023-10-31T05:16:41;1.33;;;0.30;;
44766;SDS011;30487;48.716;9.272;2023-10-31T05:19:07;1.13;;;0.30;;
44766;SDS011;30487;48.716;9.272;2023-10-31T05:21:33;1.80;;;0.40;;
44766;SDS011;30487;48.716;9.272;2023-10-31T05:23:59;5.95;;;0.60;;
44766;SDS011;30487;48.716;9.272;2023-10-31T05:26:24;1.33;;;0.40;;
44766;SDS011;30487;48.716;9.272;2023-10-31T05:28:50;0.60;;;0.32;;
44766;SDS011;30487;48.716;9.272;2023-10-31T05:31:15;1.58;;;0.40;;
44766;SDS011;30487;48.716;9.272;2023-10-31T05:33:42;0.60;;;0.30;;
44766;SDS011;30487;48.716;9.272;2023-10-31T05:36:17;2.58;;;0.65;;
44766;SDS011;30487;48.716;9.272;2023-10-31T05:38:46;1.23;;;0.50;;
44766;SDS011;30487;48.716;9.272;2023-10-31T05:41:12;2.08;;;0.80;;
44766;SDS011;30487;48.716;9.272;2023-10-31T05:43:39;1.42;;;0.50;;
44766;SDS011;30487;48.716;9.272;2023-10-31T05:46:04;2.15;;;0.35;;
44766;SDS011;30487;48.716;9.272;2023-10-31T05:48:31;0.63;;;0.25;;
44766;SDS011;30487;48.716;9.272;2023-10-31T05:50:57;3.53;;;0.50;;
44766;SDS011;30487;48.716;9.272;2023-10-31T05:53:22;1.02;;;0.30;;
44766;SDS011;30487;48.716;9.272;2023-10-31T05:55:48;1.35;;;0.40;;
44766;SDS011;30487;48.716;9.272;2023-10-31T05:58:14;2.38;;;0.55;;
44766;SDS011;30487;48.716;9.272;2023-10-31T06:00:39;2.08;;;0.50;;
44766;SDS011;30487;48.716;9.272;2023-10-31T06:03:05;1.30;;;0.50;;
44766;SDS011;30487;48.716;9.272;2023-10-31T06:05:31;0.50;;;0.40;;
44766;SDS011;30487;48.716;9.272;2023-10-31T06:07:56;3.00;;;0.50;;
44766;SDS011;30487;48.716;9.272;2023-10-31T06:10:22;0.90;;;0.50;;
44766;SDS011;30487;48.716;9.272;2023-10-31T06:12:47;3.08;;;0.40;;
44766;SDS011;30487;48.716;9.272;2023-10-31T06:15:13;1.00;;;0.35;;
44766;SDS011;30487;48.716;9.272;2023-10-31T06:17:39;3.58;;;0.70;;
44766;SDS011;30487;48.716;9.272;2023-10-31T06:20:06;2.22;;;0.52;;
44766;SDS011;30487;48.716;9.272;2023-10-31T06:22:32;1.58;;;0.45;;
44766;SDS011;30487;48.716;9.272;2023-10-31T06:24:58;1.48;;;0.30;;
44766;SDS011;30487;48.716;9.272;2023-10-31T06:27:24;0.68;;;0.32;;
44766;SDS011;30487;48.716;9.272;2023-10-31T06:29:49;1.00;;;0.35;;
44766;SDS011;30487;48.716;9.272;2023-10-31T06:32:16;1.25;;;0.50;;
44766;SDS011;30487;48.716;9.272;2023-10-31T06:34:41;2.30;;;0.68;;
44766;SDS011;30487;48.716;9.272;2023-10-31T06:37:07;0.95;;;0.50;;
44766;SDS011;30487;48.716;9.272;2023-10-31T06:39:33;0.47;;;0.28;;
44766;SDS011;30487;48.716;9.272;2023-10-31T06:41:58;1.48;;;0.50;;
44766;SDS011;30487;48.716;9.272;2023-10-31T06:44:24;2.15;;;0.60;;
44766;SDS011;30487;48.716;9.272;2023-10-31T06:46:49;1.42;;;0.40;;
44766;SDS011;30487;48.716;9.272;2023-10-31T06:49:15;1.75;;;0.50;;
44766;SDS011;30487;48.716;9.272;2023-10-31T06:51:41;1.45;;;0.73;;
44766;SDS011;30487;48.716;9.272;2023-10-31T06:54:06;1.70;;;0.70;;
44766;SDS011;30487;48.716;9.272;2023-10-31T06:56:32;2.42;;;0.50;;
44766;SDS011;30487;48.716;9.272;2023-10-31T06:58:58;2.20;;;0.50;;
44766;SDS011;30487;48.716;9.272;2023-10-31T07:01:23;1.00;;;0.40;;
44766;SDS011;30487;48.716;9.272;2023-10-31T07:03:50;0.95;;;0.50;;
44766;SDS011;30487;48.716;9.272;2023-10-31T07:06:15;0.93;;;0.35;;
44766;SDS011;30487;48.716;9.272;2023-10-31T07:08:41;1.05;;;0.47;;
44766;SDS011;30487;48.716;9.272;2023-10-31T07:11:06;1.10;;;0.35;;
44766;SDS011;30487;48.716;9.272;2023-10-31T07:13:32;1.05;;;0.47;;
44766;SDS011;30487;48.716;9.272;2023-10-31T07:15:57;1.20;;;0.40;;
44766;SDS011;30487;48.716;9.272;2023-10-31T07:18:23;1.67;;;0.60;;
44766;SDS011;30487;48.716;9.272;2023-10-31T07:20:49;1.05;;;0.50;;
44766;SDS011;30487;48.716;9.272;2023-10-31T07:23:14;2.53;;;0.50;;
44766;SDS011;30487;48.716;9.272;2023-10-31T07:25:40;0.98;;;0.40;;
44766;SDS011;30487;48.716;9.272;2023-10-31T07:28:06;1.48;;;0.50;;
44766;SDS011;30487;48.716;9.272;2023-10-31T07:30:31;2.00;;;0.50;;
44766;SDS011;30487;48.716;9.272;2023-10-31T07:32:57;0.98;;;0.35;;
44766;SDS011;30487;48.716;9.272;2023-10-31T07:35:23;1.02;;;0.30;;
44766;SDS011;30487;48.716;9.272;2023-10-31T07:37:48;2.28;;;0.65;;
44766;SDS011;30487;48.716;9.272;2023-10-31T07:40:14;0.40;;;0.30;;
44766;SDS011;30487;48.716;9.272;2023-10-31T07:42:39;2.35;;;0.40;;
44766;SDS011;30487;48.716;9.272;2023-10-31T07:45:05;0.88;;;0.50;;
44766;SDS011;30487;48.716;9.272;2023-10-31T07:47:31;2.97;;;0.45;;
44766;SDS011;30487;48.716;9.272;2023-10-31T07:49:56;1.40;;;0.40;;
44766;SDS011;30487;48.716;9.272;2023-10-31T07:52:22;1.23;;;0.50;;
44766;SDS011;30487;48.716;9.272;2023-10-31T07:54:47;0.98;;;0.40;;
44766;SDS011;30487;48.716;9.272;2023-10-31T07:57:13;0.50;;;0.40;;
44766;SDS011;30487;48.716;9.272;2023-10-31T07:59:39;0.63;;;0.32;;
44766;SDS011;30487;48.716;9.272;2023-10-31T08:02:04;1.45;;;0.60;;
44766;SDS011;30487;48.716;9.272;2023-10-31T08:04:31;1.75;;;0.50;;
44766;SDS011;30487;48.716;9.272;2023-10-31T08:06:57;0.77;;;0.40;;
44766;SDS011;30487;48.716;9.272;2023-10-31T08:09:23;2.25;;;0.60;;
44766;SDS011;30487;48.716;9.272;2023-10-31T08:11:48;1.45;;;0.40;;
44766;SDS011;30487;48.716;9.272;2023-10-31T08:14:14;1.92;;;0.45;;
44766;SDS011;30487;48.716;9.272;2023-10-31T08:16:41;3.05;;;0.40;;
44766;SDS011;30487;48.716;9.272;2023-10-31T08:19:07;2.08;;;0.40;;
44766;SDS011;30487;48.716;9.272;2023-10-31T08:21:32;1.13;;;0.50;;
44766;SDS011;30487;48.716;9.272;2023-10-31T08:24:01;2.88;;;0.43;;
44766;SDS011;30487;48.716;9.272;2023-10-31T08:26:28;1.48;;;0.50;;
44766;SDS011;30487;48.716;9.272;2023-10-31T08:28:53;1.02;;;0.30;;
44766;SDS011;30487;48.716;9.272;2023-10-31T08:31:19;0.73;;;0.40;;
44766;SDS011;30487;48.716;9.272;2023-10-31T08:33:45;1.75;;;0.55;;
44766;SDS011;30487;48.716;9.272;2023-10-31T08:36:11;2.38;;;0.50;;
44766;SDS011;30487;48.716;9.272;2023-10-31T08:38:36;3.60;;;0.68;;
44766;SDS011;30487;48.716;9.272;2023-10-31T08:41:02;4.00;;;0.60;;
44766;SDS011;30487;48.716;9.272;2023-10-31T08:43:27;1.13;;;0.50;;
44766;SDS011;30487;48.716;9.272;2023-10-31T08:45:53;0.60;;;0.40;;
44766;SDS011;30487;48.716;9.272;2023-10-31T08:48:19;2.13;;;0.40;;
44766;SDS011;30487;48.716;9.272;2023-10-31T08:50:44;3.22;;;0.70;;
44766;SDS011;30487;48.716;9.272;2023-10-31T08:53:10;2.58;;;0.65;;
44766;SDS011;30487;48.716;9.272;2023-10-31T08:55:36;0.90;;;0.40;;
44766;SDS011;30487;48.716;9.272;2023-10-31T08:58:02;3.83;;;0.90;;
44766;SDS011;30487;48.716;9.272;2023-10-31T09:00:28;3.00;;;0.80;;
44766;SDS011;30487;48.716;9.272;2023-10-31T09:02:54;2.30;;;0.50;;
44766;SDS011;30487;48.716;9.272;2023-10-31T09:05:19;3.15;;;0.63;;
44766;SDS011;30487;48.716;9.272;2023-10-31T09:07:45;5.30;;;0.90;;
44766;SDS011;30487;48.716;9.272;2023-10-31T09:10:11;3.28;;;0.70;;
44766;SDS011;30487;48.716;9.272;2023-10-31T09:12:37;1.15;;;0.60;;
44766;SDS011;30487;48.716;9.272;2023-10-31T09:15:03;2.40;;;0.60;;
44766;SDS011;30487;48.716;9.272;2023-10-31T09:17:29;1.38;;;0.50;;
44766;SDS011;30487;48.716;9.272;2023-10-31T09:19:55;3.47;;;0.55;;
44766;SDS011;30487;48.716;9.272;2023-10-31T09:22:21;3.80;;;0.75;;
44766;SDS011;30487;48.716;9.272;2023-10-31T09:24:46;2.92;;;0.50;;
44766;SDS011;30487;48.716;9.272;2023-10-31T09:27:12;2.47;;;0.50;;
44766;SDS011;30487;48.716;9.272;2023-10-31T09:29:37;1.67;;;0.55;;
44766;SDS011;30487;48.716;9.272;2023-10-31T09:32:03;0.82;;;0.40;;
44766;SDS011;30487;48.716;9.272;2023-10-31T09:34:31;5.13;;;0.82;;
44766;SDS011;30487;48.716;9.272;2023-10-31T09:36:57;3.42;;;0.70;;
44766;SDS011;30487;48.716;9.272;2023-10-31T09:39:23;2.97;;;0.57;;
44766;SDS011;30487;48.716;9.272;2023-10-31T09:41:49;4.32;;;0.70;;
44766;SDS011;30487;48.716;9.272;2023-10-31T09:44:14;2.83;;;0.73;;
44766;SDS011;30487;48.716;9.272;2023-10-31T09:46:40;3.28;;;0.82;;
44766;SDS011;30487;48.716;9.272;2023-10-31T09:49:06;2.65;;;0.73;;
44766;SDS011;30487;48.716;9.272;2023-10-31T09:51:33;2.53;;;0.60;;
44766;SDS011;30487;48.716;9.272;2023-10-31T09:53:59;3.25;;;0.80;;
44766;SDS011;30487;48.716;9.272;2023-10-31T09:56:28;3.95;;;0.70;;
44766;SDS011;30487;48.716;9.272;2023-10-31T09:58:59;3.55;;;0.70;;
44766;SDS011;30487;48.716;9.272;2023-10-31T10:01:25;1.75;;;0.70;;
44766;SDS011;30487;48.716;9.272;2023-10-31T10:03:51;3.72;;;0.52;;
44766;SDS011;30487;48.716;9.272;2023-10-31T10:06:17;6.65;;;0.82;;
44766;SDS011;30487;48.716;9.272;2023-10-31T10:08:46;5.32;;;0.80;;
44766;SDS011;30487;48.716;9.272;2023-10-31T10:11:12;1.90;;;0.60;;
44766;SDS011;30487;48.716;9.272;2023-10-31T10:13:37;4.00;;;0.70;;
44766;SDS011;30487;48.716;9.272;2023-10-31T10:16:04;6.47;;;0.90;;
44766;SDS011;30487;48.716;9.272;2023-10-31T10:18:30;3.25;;;1.05;;
44766;SDS011;30487;48.716;9.272;2023-10-31T10:21:01;4.25;;;0.80;;
44766;SDS011;30487;48.716;9.272;2023-10-31T10:23:28;4.35;;;0.82;;
44766;SDS011;30487;48.716;9.272;2023-10-31T10:25:54;3.30;;;0.90;;
44766;SDS011;30487;48.716;9.272;2023-10-31T10:28:21;2.67;;;0.80;;
44766;SDS011;30487;48.716;9.272;2023-10-31T10:30:47;3.75;;;0.90;;
44766;SDS011;30487;48.716;9.272;2023-10-31T10:33:13;1.35;;;0.70;;
44766;SDS011;30487;48.716;9.272;2023-10-31T10:35:42;4.03;;;0.80;;
44766;SDS011;30487;48.716;9.272;2023-10-31T10:38:10;1.77;;;0.60;;
44766;SDS011;30487;48.716;9.272;2023-10-31T10:40:43;3.53;;;0.70;;
44766;SDS011;30487;48.716;9.272;2023-10-31T10:43:19;4.50;;;0.70;;
44766;SDS011;30487;48.716;9.272;2023-10-31T10:45:46;3.85;;;0.65;;
44766;SDS011;30487;48.716;9.272;2023-10-31T10:48:23;3.40;;;0.70;;
44766;SDS011;30487;48.716;9.272;2023-10-31T10:51:05;6.93;;;0.90;;
44766;SDS011;30487;48.716;9.272;2023-10-31T10:54:09;3.67;;;1.15;;
44766;SDS011;30487;48.716;9.272;2023-10-31T10:56:53;5.40;;;0.90;;
44766;SDS011;30487;48.716;9.272;2023-10-31T10:59:45;2.63;;;0.90;;
44766;SDS011;30487;48.716;9.272;2023-10-31T11:02:15;1.27;;;0.50;;
44766;SDS011;30487;48.716;9.272;2023-10-31T11:04:50;4.72;;;0.93;;
44766;SDS011;30487;48.716;9.272;2023-10-31T11:07:17;1.27;;;0.50;;
44766;SDS011;30487;48.716;9.272;2023-10-31T11:09:45;6.18;;;1.00;;
44766;SDS011;30487;48.716;9.272;2023-10-31T11:12:12;5.00;;;0.88;;
44766;SDS011;30487;48.716;9.272;2023-10-31T11:14:38;2.45;;;0.75;;
44766;SDS011;30487;48.716;9.272;2023-10-31T11:17:14;3.70;;;0.70;;
44766;SDS011;30487;48.716;9.272;2023-10-31T11:19:49;3.35;;;0.90;;
44766;SDS011;30487;48.716;9.272;2023-10-31T11:22:17;2.95;;;0.90;;
44766;SDS011;30487;48.716;9.272;2023-10-31T11:24:43;1.73;;;0.65;;
44766;SDS011;30487;48.716;9.272;2023-10-31T11:27:08;4.68;;;0.68;;
44766;SDS011;30487;48.716;9.272;2023-10-31T11:29:35;2.10;;;0.70;;
44766;SDS011;30487;48.716;9.272;2023-10-31T11:32:01;1.58;;;0.60;;
44766;SDS011;30487;48.716;9.272;2023-10-31T11:34:28;2.67;;;0.80;;
44766;SDS011;30487;48.716;9.272;2023-10-31T11:40:14;2.65;;;0.70;;
44766;SDS011;30487;48.716;9.272;2023-10-31T11:48:13;4.25;;;0.70;;
44766;SDS011;30487;48.716;9.272;2023-10-31T11:50:39;2.30;;;0.80;;
44766;SDS011;30487;48.716;9.272;2023-10-31T11:53:12;2.03;;;0.70;;
44766;SDS011;30487;48.716;9.272;2023-10-31T11:58:11;3.70;;;0.77;;
44766;SDS011;30487;48.716;9.272;2023-10-31T12:00:37;2.45;;;0.60;;
44766;SDS011;30487;48.716;9.272;2023-10-31T12:03:02;1.63;;;0.50;;
44766;SDS011;30487;48.716;9.272;2023-10-31T12:05:28;3.30;;;0.65;;
44766;SDS011;30487;48.716;9.272;2023-10-31T12:07:54;3.03;;;0.80;;
44766;SDS011;30487;48.716;9.272;2023-10-31T12:10:24;2.47;;;0.70;;
44766;SDS011;30487;48.716;9.272;2023-10-31T12:12:52;5.20;;;0.60;;
44766;SDS011;30487;48.716;9.272;2023-10-31T12:15:18;2.70;;;0.65;;
44766;SDS011;30487;48.716;9.272;2023-10-31T12:17:44;1.15;;;0.50;;
44766;SDS011;30487;48.716;9.272;2023-10-31T12:20:10;2.42;;;0.60;;
44766;SDS011;30487;48.716;9.272;2023-10-31T12:22:35;1.60;;;0.50;;
44766;SDS011;30487;48.716;9.272;2023-10-31T12:25:05;3.03;;;0.50;;
44766;SDS011;30487;48.716;9.272;2023-10-31T12:27:42;2.50;;;0.50;;
44766;SDS011;30487;48.716;9.272;2023-10-31T12:30:09;3.95;;;0.57;;
44766;SDS011;30487;48.716;9.272;2023-10-31T12:32:36;1.42;;;0.50;;
44766;SDS011;30487;48.716;9.272;2023-10-31T12:35:02;1.27;;;0.63;;
44766;SDS011;30487;48.716;9.272;2023-10-31T12:37:28;2.97;;;0.50;;
44766;SDS011;30487;48.716;9.272;2023-10-31T12:39:54;0.40;;;0.30;;
44766;SDS011;30487;48.716;9.272;2023-10-31T12:42:22;1.75;;;0.50;;
44766;SDS011;30487;48.716;9.272;2023-10-31T12:44:54;1.45;;;0.40;;
44766;SDS011;30487;48.716;9.272;2023-10-31T12:47:23;1.10;;;0.50;;
44766;SDS011;30487;48.716;9.272;2023-10-31T12:49:48;4.72;;;0.40;;
44766;SDS011;30487;48.716;9.272;2023-10-31T12:52:50;1.25;;;0.30;;
44766;SDS011;30487;48.716;9.272;2023-10-31T12:55:38;1.15;;;0.30;;
44766;SDS011;30487;48.716;9.272;2023-10-31T12:58:03;0.90;;;0.32;;
44766;SDS011;30487;48.716;9.272;2023-10-31T13:00:32;1.83;;;0.28;;
44766;SDS011;30487;48.716;9.272;2023-10-31T13:03:01;0.95;;;0.50;;
44766;SDS011;30487;48.716;9.272;2023-10-31T13:05:28;1.42;;;0.50;;
44766;SDS011;30487;48.716;9.272;2023-10-31T13:07:55;1.42;;;0.40;;
44766;SDS011;30487;48.716;9.272;2023-10-31T13:10:22;0.45;;;0.30;;
44766;SDS011;30487;48.716;9.272;2023-10-31T13:12:49;1.80;;;0.50;;
44766;SDS011;30487;48.716;9.272;2023-10-31T13:15:16;0.90;;;0.30;;
44766;SDS011;30487;48.716;9.272;2023-10-31T13:17:43;0.85;;;0.45;;
44766;SDS011;30487;48.716;9.272;2023-10-31T13:20:10;1.48;;;0.30;;
44766;SDS011;30487;48.716;9.272;2023-10-31T13:22:39;1.17;;;0.50;;
44766;SDS011;30487;48.716;9.272;2023-10-31T13:25:06;1.83;;;0.40;;
44766;SDS011;30487;48.716;9.272;2023-10-31T13:27:35;2.30;;;0.40;;
44766;SDS011;30487;48.716;9.272;2023-10-31T13:30:02;1.40;;;0.47;;
44766;SDS011;30487;48.716;9.272;2023-10-31T13:32:28;0.57;;;0.38;;
44766;SDS011;30487;48.716;9.272;2023-10-31T13:34:53;1.92;;;0.50;;
44766;SDS011;30487;48.716;9.272;2023-10-31T13:37:19;0.52;;;0.32;;
44766;SDS011;30487;48.716;9.272;2023-10-31T13:39:45;1.00;;;0.30;;
44766;SDS011;30487;48.716;9.272;2023-10-31T13:42:11;2.22;;;0.60;;
44766;SDS011;30487;48.716;9.272;2023-10-31T13:44:37;1.80;;;0.40;;
44766;SDS011;30487;48.716;9.272;2023-10-31T13:47:03;3.00;;;0.40;;
44766;SDS011;30487;48.716;9.272;2023-10-31T13:49:28;0.95;;;0.32;;
44766;SDS011;30487;48.716;9.272;2023-10-31T13:51:54;0.75;;;0.35;;
44766;SDS011;30487;48.716;9.272;2023-10-31T13:54:20;1.20;;;0.50;;
44766;SDS011;30487;48.716;9.272;2023-10-31T13:56:46;0.60;;;0.30;;
44766;SDS011;30487;48.716;9.272;2023-10-31T13:59:13;1.17;;;0.35;;
44766;SDS011;30487;48.716;9.272;2023-10-31T14:01:39;3.30;;;0.43;;
44766;SDS011;30487;48.716;9.272;2023-10-31T14:04:07;0.68;;;0.35;;
44766;SDS011;30487;48.716;9.272;2023-10-31T14:06:34;3.45;;;0.60;;
44766;SDS011;30487;48.716;9.272;2023-10-31T14:09:00;1.55;;;0.50;;
44766;SDS011;30487;48.716;9.272;2023-10-31T14:11:32;3.75;;;0.40;;
44766;SDS011;30487;48.716;9.272;2023-10-31T14:13:59;1.45;;;0.38;;
44766;SDS011;30487;48.716;9.272;2023-10-31T14:16:34;1.38;;;0.50;;
44766;SDS011;30487;48.716;9.272;2023-10-31T14:19:00;1.42;;;0.30;;
44766;SDS011;30487;48.716;9.272;2023-10-31T14:21:26;0.80;;;0.35;;
44766;SDS011;30487;48.716;9.272;2023-10-31T14:23:52;1.58;;;0.40;;
44766;SDS011;30487;48.716;9.272;2023-10-31T14:26:21;1.55;;;0.60;;
44766;SDS011;30487;48.716;9.272;2023-10-31T14:28:47;1.00;;;0.30;;
44766;SDS011;30487;48.716;9.272;2023-10-31T14:31:13;0.98;;;0.40;;
44766;SDS011;30487;48.716;9.272;2023-10-31T14:33:39;1.23;;;0.45;;
44766;SDS011;30487;48.716;9.272;2023-10-31T14:36:05;3.22;;;0.50;;
44766;SDS011;30487;48.716;9.272;2023-10-31T14:38:31;2.40;;;0.60;;
44766;SDS011;30487;48.716;9.272;2023-10-31T14:40:56;1.20;;;0.50;;
44766;SDS011;30487;48.716;9.272;2023-10-31T14:43:22;1.75;;;0.47;;
44766;SDS011;30487;48.716;9.272;2023-10-31T14:45:47;3.10;;;0.50;;
44766;SDS011;30487;48.716;9.272;2023-10-31T14:48:13;2.58;;;0.55;;
44766;SDS011;30487;48.716;9.272;2023-10-31T14:50:39;1.95;;;0.40;;
44766;SDS011;30487;48.716;9.272;2023-10-31T14:53:05;0.60;;;0.30;;
44766;SDS011;30487;48.716;9.272;2023-10-31T14:55:30;2.40;;;0.30;;